Time;durP1;ratioP1;P1;durP2;ratioP2;P2;SDS_P1;SDS_P2;PMS_P1;PMS_P2;Temp;Humidity;BMP_temperature;BMP_pressure;BME280_temperature;BME280_humidity;BME280_pressure;Samples;Min_cycle;Max_cycle;Signal;HPM_P1;HPM_P2
2024/01/01 00:04:12;;;;;;;;;;;17.30;70.70;;;;;;10208081;28;95029;-48
2024/01/01 00:09:14;;;;;;;;;;;17.30;70.70;;;;;;10207327;28;93011;-48
2024/01/01 00:14:15;;;;;;;;;;;17.30;70.70;;;;;;10208542;28;93484;-50
2024/01/01 00:19:17;;;;;;;;;;;17.30;70.70;;;;;;10207714;28;94022;-45
2024/01/01 00:24:19;;;;;;;;;;;17.20;70.70;;;;;;10208818;28;93646;-50
2024/01/01 00:29:21;;;;;;;;;;;17.20;70.60;;;;;;10208100;28;93526;-50
2024/01/01 00:34:34;;;;;;;;;;;17.20;70.60;;;;;;10208979;28;92733;-47
2024/01/01 00:39:36;;;;;;;;;;;17.20;70.50;;;;;;10205345;28;93457;-47
2024/01/01 00:44:37;;;;;;;;;;;17.20;70.50;;;;;;10202955;28;94763;-45
2024/01/01 00:49:39;;;;;;;;;;;17.10;70.40;;;;;;10201043;28;96296;-52
2024/01/01 00:54:41;;;;;;;;;;;17.10;70.40;;;;;;10205280;28;94798;-48
2024/01/01 00:59:43;;;;;;;;;;;17.10;70.40;;;;;;10205321;28;93356;-48
2024/01/01 01:04:46;;;;;;;;;;;17.10;70.30;;;;;;10201717;28;94518;-46
2024/01/01 01:10:06;;;;;;;;;;;17.00;70.20;;;;;;10206030;28;93554;-47
2024/01/01 01:15:08;;;;;;;;;;;17.10;70.20;;;;;;10202998;28;94449;-45
2024/01/01 01:20:09;;;;;;;;;;;17.10;70.20;;;;;;10206388;28;93775;-48
2024/01/01 01:25:12;;;;;;;;;;;17.00;70.30;;;;;;10205989;28;93906;-46
2024/01/01 01:30:14;;;;;;;;;;;17.00;70.20;;;;;;10208005;28;93883;-45
2024/01/01 01:35:16;;;;;;;;;;;17.00;70.20;;;;;;10203693;28;93496;-49
2024/01/01 01:40:18;;;;;;;;;;;17.00;70.10;;;;;;10203056;28;95921;-45
2024/01/01 01:45:19;;;;;;;;;;;17.00;70.00;;;;;;10206247;28;94492;-49
2024/01/01 01:50:21;;;;;;;;;;;17.00;70.00;;;;;;10211137;28;93481;-48
2024/01/01 01:55:23;;;;;;;;;;;16.90;69.90;;;;;;10203243;28;93712;-49
2024/01/01 02:05:45;;;;;;;;;;;16.90;69.80;;;;;;10553061;22;95110;-57
2024/01/01 02:10:48;;;;;;;;;;;16.90;69.70;;;;;;10226552;28;94704;-56
2024/01/01 02:15:49;;;;;;;;;;;16.90;69.80;;;;;;10232105;28;92654;-57
2024/01/01 02:20:51;;;;;;;;;;;16.90;69.70;;;;;;10229543;28;93430;-58
2024/01/01 02:25:53;;;;;;;;;;;16.90;69.70;;;;;;10222516;28;94089;-57
2024/01/01 02:30:55;;;;;;;;;;;16.90;69.50;;;;;;10250660;28;95771;-57
2024/01/01 02:35:57;;;;;;;;;;;16.90;69.50;;;;;;10236801;28;93496;-57
2024/01/01 02:40:58;;;;;;;;;;;16.90;69.60;;;;;;10244928;28;94571;-56
2024/01/01 02:46:00;;;;;;;;;;;16.80;69.60;;;;;;10239696;28;94202;-57
2024/01/01 02:51:03;;;;;;;;;;;16.80;69.50;;;;;;10237471;28;94431;-57
2024/01/01 02:56:04;;;;;;;;;;;16.90;69.50;;;;;;10240341;28;93460;-57
2024/01/01 03:01:06;;;;;;;;;;;16.80;69.40;;;;;;10239176;28;94060;-57
2024/01/01 03:06:11;;;;;;;;;;;16.80;69.40;;;;;;10241779;28;92755;-56
2024/01/01 03:11:13;;;;;;;;;;;16.80;69.40;;;;;;10236786;28;95091;-57
2024/01/01 03:16:15;;;;;;;;;;;16.80;69.40;;;;;;10240616;28;93615;-57
2024/01/01 03:21:17;;;;;;;;;;;16.80;69.50;;;;;;10239696;28;95891;-57
2024/01/01 03:26:19;;;;;;;;;;;16.70;69.40;;;;;;10240431;28;93894;-55
2024/01/01 03:31:20;;;;;;;;;;;16.80;69.40;;;;;;10242444;28;93968;-56
2024/01/01 03:36:22;;;;;;;;;;;16.70;69.40;;;;;;10243987;28;93935;-57
2024/01/01 03:41:26;;;;;;;;;;;16.70;69.30;;;;;;10226055;28;93482;-57
2024/01/01 03:46:28;;;;;;;;;;;16.70;69.30;;;;;;10225139;28;93970;-57
2024/01/01 03:51:29;;;;;;;;;;;16.70;69.20;;;;;;10236211;28;93514;-57
2024/01/01 03:56:31;;;;;;;;;;;16.70;69.20;;;;;;10241351;28;93050;-57
2024/01/01 04:01:35;;;;;;;;;;;16.70;69.20;;;;;;10241233;28;94227;-57
2024/01/01 04:06:37;;;;;;;;;;;16.70;69.20;;;;;;10231712;28;94428;-57
2024/01/01 04:11:39;;;;;;;;;;;16.60;69.10;;;;;;10238115;28;95923;-57
2024/01/01 04:16:40;;;;;;;;;;;16.60;69.10;;;;;;10238575;28;93144;-57
2024/01/01 04:21:42;;;;;;;;;;;16.60;69.10;;;;;;10244898;28;94509;-56
2024/01/01 04:26:44;;;;;;;;;;;16.60;69.20;;;;;;10245228;28;93774;-56
2024/01/01 04:31:46;;;;;;;;;;;16.60;69.20;;;;;;10243200;28;94000;-57
2024/01/01 04:36:48;;;;;;;;;;;16.60;69.10;;;;;;10247377;28;93666;-57
2024/01/01 04:41:49;;;;;;;;;;;16.60;69.20;;;;;;10248295;28;94111;-56
2024/01/01 04:46:51;;;;;;;;;;;16.60;69.10;;;;;;10248683;28;94094;-56
2024/01/01 04:51:53;;;;;;;;;;;16.60;69.10;;;;;;10244050;28;93811;-57
2024/01/01 04:56:55;;;;;;;;;;;16.60;69.10;;;;;;10246516;28;93758;-57
2024/01/01 05:01:57;;;;;;;;;;;16.60;69.10;;;;;;10244580;28;96324;-57
2024/01/01 05:06:58;;;;;;;;;;;16.50;69.10;;;;;;10246211;28;93946;-57
2024/01/01 05:12:00;;;;;;;;;;;16.60;69.10;;;;;;10247539;28;93912;-57
2024/01/01 05:17:02;;;;;;;;;;;16.60;69.10;;;;;;10245721;28;93504;-56
2024/01/01 05:22:04;;;;;;;;;;;16.50;69.10;;;;;;10242113;28;93771;-57
2024/01/01 05:27:07;;;;;;;;;;;16.50;69.10;;;;;;10246919;28;93119;-57
2024/01/01 05:32:09;;;;;;;;;;;16.50;69.00;;;;;;10245430;28;94168;-57
2024/01/01 05:37:14;;;;;;;;;;;16.50;69.00;;;;;;10246253;28;91950;-57
2024/01/01 05:42:15;;;;;;;;;;;16.50;70.00;;;;;;10245201;28;93638;-56
2024/01/01 05:47:17;;;;;;;;;;;16.50;68.80;;;;;;10243311;28;93838;-57
2024/01/01 05:52:21;;;;;;;;;;;16.60;69.10;;;;;;10237549;28;96235;-57
2024/01/01 05:57:23;;;;;;;;;;;16.70;69.00;;;;;;10245779;28;94767;-57
2024/01/01 06:02:25;;;;;;;;;;;16.80;68.70;;;;;;10244632;28;92456;-56
2024/01/01 06:07:27;;;;;;;;;;;16.90;68.40;;;;;;10245130;28;93005;-56
2024/01/01 06:12:29;;;;;;;;;;;17.00;68.20;;;;;;10245909;28;93825;-57
2024/01/01 06:17:30;;;;;;;;;;;17.00;68.10;;;;;;10244007;28;94389;-57
2024/01/01 06:22:32;;;;;;;;;;;17.00;67.90;;;;;;10237656;28;94804;-57
2024/01/01 06:27:34;;;;;;;;;;;17.10;68.10;;;;;;10243782;28;94016;-57
2024/01/01 06:32:36;;;;;;;;;;;17.00;68.10;;;;;;10260238;28;93881;-55
2024/01/01 06:37:38;;;;;;;;;;;17.00;68.20;;;;;;10239615;28;93591;-58
2024/01/01 06:42:40;;;;;;;;;;;17.00;68.20;;;;;;10234885;28;95000;-56
2024/01/01 06:47:42;;;;;;;;;;;17.00;68.30;;;;;;10236924;28;93455;-57
2024/01/01 06:52:45;;;;;;;;;;;17.00;68.40;;;;;;10242951;28;93449;-56
2024/01/01 06:57:47;;;;;;;;;;;17.00;68.50;;;;;;10241811;28;94191;-57
2024/01/01 07:02:48;;;;;;;;;;;16.90;68.60;;;;;;10242980;28;92574;-58
2024/01/01 07:07:51;;;;;;;;;;;16.90;68.60;;;;;;10241321;28;93591;-57
2024/01/01 07:12:53;;;;;;;;;;;16.90;68.80;;;;;;10241830;28;93701;-55
2024/01/01 07:17:54;;;;;;;;;;;16.90;68.90;;;;;;10243515;28;92841;-57
2024/01/01 07:22:59;;;;;;;;;;;16.80;68.90;;;;;;10229600;28;93447;-57
2024/01/01 07:28:00;;;;;;;;;;;16.80;69.10;;;;;;10242481;28;93351;-57
2024/01/01 07:33:03;;;;;;;;;;;16.80;69.20;;;;;;10240541;28;97090;-57
2024/01/01 07:38:05;;;;;;;;;;;16.80;69.40;;;;;;10242545;28;94605;-57
2024/01/01 07:43:07;;;;;;;;;;;16.80;69.60;;;;;;10238290;28;95216;-56
2024/01/01 07:48:09;;;;;;;;;;;16.80;69.80;;;;;;10239346;28;93436;-57
2024/01/01 07:53:12;;;;;;;;;;;16.70;69.80;;;;;;10247764;28;93447;-57
2024/01/01 07:58:17;;;;;;;;;;;16.80;69.80;;;;;;10246607;28;93903;-57
2024/01/01 08:03:21;;;;;;;;;;;16.70;69.80;;;;;;10245577;28;93833;-56
2024/01/01 08:08:23;;;;;;;;;;;16.70;69.90;;;;;;10242471;28;92827;-57
2024/01/01 08:13:24;;;;;;;;;;;16.70;70.00;;;;;;10247768;28;93037;-57
2024/01/01 08:18:26;;;;;;;;;;;16.70;70.00;;;;;;10249221;28;93476;-57
2024/01/01 08:23:28;;;;;;;;;;;16.70;70.10;;;;;;10236870;28;96315;-57
2024/01/01 08:28:32;;;;;;;;;;;16.60;70.00;;;;;;10234043;28;93470;-56
2024/01/01 08:33:33;;;;;;;;;;;16.60;70.20;;;;;;10237085;28;93578;-56
2024/01/01 08:38:35;;;;;;;;;;;16.60;70.20;;;;;;10246900;28;94313;-57
2024/01/01 08:43:37;;;;;;;;;;;16.60;70.20;;;;;;10237922;28;94890;-56
2024/01/01 08:48:39;;;;;;;;;;;16.60;70.20;;;;;;10242248;28;93850;-56
2024/01/01 08:53:40;;;;;;;;;;;16.60;70.30;;;;;;10242122;28;93776;-56
2024/01/01 08:58:42;;;;;;;;;;;16.60;70.50;;;;;;10243237;28;92984;-57
2024/01/01 09:03:44;;;;;;;;;;;16.60;70.60;;;;;;10251806;28;93506;-57
2024/01/01 09:08:46;;;;;;;;;;;16.60;70.60;;;;;;10231513;28;93660;-58
2024/01/01 09:13:48;;;;;;;;;;;16.60;70.50;;;;;;10236723;28;96575;-57
2024/01/01 09:18:50;;;;;;;;;;;16.60;70.60;;;;;;10246312;28;94476;-57
2024/01/01 09:23:52;;;;;;;;;;;16.60;70.60;;;;;;10240021;28;93472;-56
2024/01/01 09:28:53;;;;;;;;;;;16.50;70.50;;;;;;10245617;28;93436;-57
2024/01/01 09:34:00;;;;;;;;;;;16.50;70.60;;;;;;10243877;28;94519;-57
2024/01/01 09:39:02;;;;;;;;;;;16.50;70.60;;;;;;10244605;28;94313;-57
2024/01/01 09:44:04;;;;;;;;;;;16.50;70.60;;;;;;10239770;28;93443;-57
2024/01/01 09:49:05;;;;;;;;;;;16.50;71.60;;;;;;10241104;28;92517;-57
2024/01/01 09:54:08;;;;;;;;;;;16.50;70.60;;;;;;10239056;28;93514;-56
2024/01/01 09:59:10;;;;;;;;;;;16.50;70.50;;;;;;10243790;28;94023;-54
2024/01/01 10:04:12;;;;;;;;;;;16.50;73.20;;;;;;10241784;28;97428;-57
2024/01/01 10:09:13;;;;;;;;;;;16.60;72.60;;;;;;10244630;28;94411;-63
2024/01/01 10:14:15;;;;;;;;;;;16.80;74.00;;;;;;10241301;28;93456;-57
2024/01/01 10:19:17;;;;;;;;;;;17.20;74.90;;;;;;10240043;28;93709;-58
2024/01/01 10:24:21;;;;;;;;;;;17.40;74.20;;;;;;10240563;28;94573;-57
2024/01/01 10:29:35;;;;;;;;;;;17.70;73.40;;;;;;10243463;28;93434;-56
2024/01/01 10:34:37;;;;;;;;;;;17.90;72.40;;;;;;10237716;28;93669;-55
2024/01/01 10:39:40;;;;;;;;;;;18.10;72.20;;;;;;10236189;28;93216;-56
2024/01/01 10:44:41;;;;;;;;;;;18.20;72.60;;;;;;10241006;28;93471;-57
2024/01/01 10:49:51;;;;;;;;;;;18.30;72.70;;;;;;10232301;28;94090;-58
2024/01/01 10:54:59;;;;;;;;;;;18.20;72.60;;;;;;10236618;28;96397;-56
2024/01/01 11:00:11;;;;;;;;;;;18.20;72.60;;;;;;10236451;28;93441;-67
2024/01/01 11:05:15;;;;;;;;;;;18.20;72.10;;;;;;10233877;28;93471;-57
2024/01/01 11:10:35;;;;;;;;;;;18.10;71.90;;;;;;10238101;28;94223;-56
2024/01/01 11:15:45;;;;;;;;;;;18.00;71.80;;;;;;10218968;28;94385;-56
2024/01/01 11:20:50;;;;;;;;;;;18.00;71.90;;;;;;10218596;28;93693;-56
2024/01/01 11:25:52;;;;;;;;;;;17.90;71.80;;;;;;10226138;28;93561;-57
2024/01/01 11:30:55;;;;;;;;;;;17.80;71.70;;;;;;10232932;28;93131;-57
2024/01/01 11:36:04;;;;;;;;;;;17.80;71.70;;;;;;10242022;28;93923;-57
2024/01/01 11:41:06;;;;;;;;;;;17.70;71.80;;;;;;10244338;28;94406;-57
2024/01/01 11:46:08;;;;;;;;;;;17.70;71.70;;;;;;10245384;28;96680;-56
2024/01/01 11:51:10;;;;;;;;;;;17.60;71.80;;;;;;10245738;28;95019;-57
2024/01/01 11:56:11;;;;;;;;;;;17.60;71.80;;;;;;10249225;28;92828;-56
2024/01/01 12:01:13;;;;;;;;;;;17.50;71.70;;;;;;10239483;28;94040;-57
2024/01/01 12:06:15;;;;;;;;;;;17.50;71.90;;;;;;10245110;28;93194;-57
2024/01/01 12:11:17;;;;;;;;;;;17.50;72.10;;;;;;10248712;28;94162;-56
2024/01/01 12:16:20;;;;;;;;;;;17.50;72.10;;;;;;10245019;28;94527;-56
2024/01/01 12:21:21;;;;;;;;;;;17.40;72.20;;;;;;10249208;28;91828;-57
2024/01/01 12:26:23;;;;;;;;;;;17.40;72.30;;;;;;10244592;28;95290;-56
2024/01/01 12:31:25;;;;;;;;;;;17.40;72.30;;;;;;10249093;28;93083;-56
2024/01/01 12:36:27;;;;;;;;;;;17.40;72.20;;;;;;10233598;28;95736;-56
2024/01/01 12:41:29;;;;;;;;;;;17.40;72.20;;;;;;10235641;28;93302;-57
2024/01/01 12:46:31;;;;;;;;;;;17.40;72.40;;;;;;10242493;28;93930;-55
2024/01/01 12:51:33;;;;;;;;;;;17.40;72.40;;;;;;10238480;28;93844;-56
2024/01/01 12:56:34;;;;;;;;;;;17.40;72.30;;;;;;10227855;28;93937;-55
2024/01/01 13:01:36;;;;;;;;;;;17.40;72.40;;;;;;10236809;28;94442;-61
2024/01/01 13:06:38;;;;;;;;;;;17.30;72.20;;;;;;10235984;28;95847;-55
2024/01/01 13:11:40;;;;;;;;;;;17.30;72.00;;;;;;10241622;28;93441;-56
2024/01/01 13:16:42;;;;;;;;;;;17.30;72.00;;;;;;10241214;28;94615;-56
2024/01/01 13:21:44;;;;;;;;;;;17.30;71.90;;;;;;10236720;28;93458;-57
2024/01/01 13:26:46;;;;;;;;;;;17.30;72.00;;;;;;10240131;28;95963;-57
2024/01/01 13:31:48;;;;;;;;;;;17.30;71.80;;;;;;10251836;28;93784;-55
2024/01/01 13:36:51;;;;;;;;;;;17.20;72.60;;;;;;10241656;28;93595;-54
2024/01/01 13:41:53;;;;;;;;;;;17.30;73.50;;;;;;10244943;28;93488;-57
2024/01/01 13:46:54;;;;;;;;;;;17.30;73.00;;;;;;10244306;28;93429;-50
2024/01/01 13:51:56;;;;;;;;;;;17.30;72.60;;;;;;10232438;28;94095;-56
2024/01/01 13:56:58;;;;;;;;;;;17.30;72.40;;;;;;10246119;28;94085;-54
2024/01/01 14:02:02;;;;;;;;;;;17.40;72.10;;;;;;10245054;28;94070;-54
2024/01/01 14:07:04;;;;;;;;;;;17.30;71.60;;;;;;10244886;28;94147;-56
2024/01/01 14:12:05;;;;;;;;;;;17.20;71.60;;;;;;10241731;28;93916;-56
2024/01/01 14:17:08;;;;;;;;;;;17.20;71.60;;;;;;10237591;28;96922;-56
2024/01/01 14:22:10;;;;;;;;;;;17.20;71.70;;;;;;10238313;28;93920;-56
2024/01/01 14:27:12;;;;;;;;;;;17.20;71.70;;;;;;10239172;28;94440;-59
2024/01/01 14:32:13;;;;;;;;;;;17.10;71.70;;;;;;10244791;28;94424;-56
2024/01/01 14:37:15;;;;;;;;;;;17.10;71.60;;;;;;10243037;28;94521;-57
2024/01/01 14:42:18;;;;;;;;;;;17.10;71.50;;;;;;10246158;28;94255;-58
2024/01/01 14:47:20;;;;;;;;;;;17.00;71.50;;;;;;10239780;28;93246;-57
2024/01/01 14:52:22;;;;;;;;;;;17.00;71.50;;;;;;10236822;28;92719;-57
2024/01/01 14:57:23;;;;;;;;;;;16.90;72.30;;;;;;10244763;28;94511;-56
2024/01/01 15:02:25;;;;;;;;;;;17.00;72.70;;;;;;10243770;28;94418;-57
2024/01/01 15:07:27;;;;;;;;;;;17.00;72.80;;;;;;10225502;28;97419;-58
2024/01/01 15:12:29;;;;;;;;;;;17.10;72.50;;;;;;10232783;28;93375;-49
2024/01/01 15:17:30;;;;;;;;;;;17.00;72.30;;;;;;10235426;28;94556;-58
2024/01/01 15:22:33;;;;;;;;;;;17.00;72.20;;;;;;10234509;28;93326;-56
2024/01/01 15:27:34;;;;;;;;;;;17.00;73.00;;;;;;10227667;28;93447;-55
2024/01/01 15:32:36;;;;;;;;;;;17.00;72.10;;;;;;10236034;28;92886;-55
2024/01/01 15:37:38;;;;;;;;;;;16.90;73.20;;;;;;10229874;28;93900;-51
2024/01/01 15:42:40;;;;;;;;;;;16.90;72.10;;;;;;10232260;28;92973;-56
2024/01/01 15:47:42;;;;;;;;;;;16.90;71.90;;;;;;10226189;28;94050;-57
2024/01/01 15:52:44;;;;;;;;;;;16.90;71.70;;;;;;10237718;28;95006;-60
2024/01/01 15:57:46;;;;;;;;;;;16.80;71.90;;;;;;10235750;28;95876;-49
2024/01/01 16:02:47;;;;;;;;;;;16.80;71.60;;;;;;10233240;28;93032;-59
2024/01/01 16:07:49;;;;;;;;;;;16.80;71.90;;;;;;10240612;28;94196;-55
2024/01/01 16:12:51;;;;;;;;;;;16.80;71.80;;;;;;10241870;28;94867;-56
2024/01/01 16:17:53;;;;;;;;;;;16.70;72.10;;;;;;10243399;28;94868;-57
2024/01/01 16:22:55;;;;;;;;;;;16.80;72.10;;;;;;10248940;28;93398;-58
2024/01/01 16:27:56;;;;;;;;;;;16.90;72.10;;;;;;10243648;28;92563;-60
2024/01/01 16:32:58;;;;;;;;;;;17.10;71.80;;;;;;10245151;28;94191;-57
2024/01/01 16:38:00;;;;;;;;;;;17.30;71.40;;;;;;10237501;28;93469;-59
2024/01/01 16:43:02;;;;;;;;;;;17.60;70.90;;;;;;10246897;28;93415;-60
2024/01/01 16:48:04;;;;;;;;;;;17.80;72.50;;;;;;10234917;28;96510;-58
2024/01/01 16:53:06;;;;;;;;;;;17.90;73.00;;;;;;10238982;28;94458;-59
2024/01/01 16:58:08;;;;;;;;;;;18.00;74.80;;;;;;10242974;28;94579;-59
2024/01/01 17:03:10;;;;;;;;;;;18.10;75.70;;;;;;10245282;28;95069;-59
2024/01/01 17:08:12;;;;;;;;;;;18.20;77.20;;;;;;10255735;28;94463;-58
2024/01/01 17:13:16;;;;;;;;;;;18.40;78.30;;;;;;10245401;28;93805;-59
2024/01/01 17:18:17;;;;;;;;;;;18.60;77.80;;;;;;10245341;28;92657;-59
2024/01/01 17:23:19;;;;;;;;;;;18.60;75.90;;;;;;10231109;28;94228;-63
2024/01/01 17:28:21;;;;;;;;;;;18.60;75.80;;;;;;10235186;28;94334;-59
2024/01/01 17:33:23;;;;;;;;;;;18.50;75.20;;;;;;10233029;28;94566;-60
2024/01/01 17:38:25;;;;;;;;;;;18.50;75.00;;;;;;10237035;28;95914;-60
2024/01/01 17:43:27;;;;;;;;;;;18.40;74.90;;;;;;10234299;28;92782;-60
2024/01/01 17:48:29;;;;;;;;;;;18.30;74.80;;;;;;10233455;28;94137;-59
2024/01/01 17:53:31;;;;;;;;;;;18.30;75.00;;;;;;10245590;28;93509;-62
2024/01/01 17:58:35;;;;;;;;;;;18.20;74.90;;;;;;10245640;28;93983;-59
2024/01/01 18:03:37;;;;;;;;;;;18.20;75.00;;;;;;10245813;28;94023;-59
2024/01/01 18:08:39;;;;;;;;;;;18.10;75.00;;;;;;10244943;28;93850;-58
2024/01/01 18:13:41;;;;;;;;;;;18.00;75.00;;;;;;10242346;28;93762;-59
2024/01/01 18:18:43;;;;;;;;;;;18.00;74.90;;;;;;10245458;28;93460;-59
2024/01/01 18:23:47;;;;;;;;;;;17.90;75.00;;;;;;10229734;28;114037;-60
2024/01/01 18:28:49;;;;;;;;;;;17.90;74.80;;;;;;10242575;28;95924;-59
2024/01/01 18:33:50;;;;;;;;;;;17.80;74.70;;;;;;10234495;28;94480;-60
2024/01/01 18:38:52;;;;;;;;;;;17.80;74.70;;;;;;10245590;28;93541;-60
2024/01/01 18:43:54;;;;;;;;;;;17.80;74.70;;;;;;10240579;28;93435;-59
2024/01/01 18:48:56;;;;;;;;;;;17.80;74.80;;;;;;10230493;28;93994;-59
2024/01/01 18:53:58;;;;;;;;;;;17.70;74.90;;;;;;10243158;28;94070;-58
2024/01/01 18:59:00;;;;;;;;;;;17.70;74.50;;;;;;10239880;28;93791;-59
2024/01/01 19:04:03;;;;;;;;;;;17.70;74.50;;;;;;10241930;28;93352;-59
2024/01/01 19:09:14;;;;;;;;;;;17.70;74.40;;;;;;10240910;28;93437;-59
2024/01/01 19:14:16;;;;;;;;;;;17.70;74.30;;;;;;10228826;28;93374;-59
2024/01/01 19:19:18;;;;;;;;;;;17.70;74.30;;;;;;10231563;28;96245;-59
2024/01/01 19:24:20;;;;;;;;;;;17.70;74.30;;;;;;10236465;28;93563;-59
2024/01/01 19:29:22;;;;;;;;;;;17.70;74.20;;;;;;10228099;28;94392;-59
2024/01/01 19:34:24;;;;;;;;;;;17.60;74.00;;;;;;10239479;28;94098;-58
2024/01/01 19:39:26;;;;;;;;;;;17.70;74.00;;;;;;10242752;28;93422;-59
2024/01/01 19:44:27;;;;;;;;;;;17.60;73.80;;;;;;10241137;28;94644;-59
2024/01/01 19:49:29;;;;;;;;;;;17.60;73.90;;;;;;10240415;28;93463;-59
2024/01/01 19:54:31;;;;;;;;;;;17.60;75.00;;;;;;10250576;28;91848;-58
2024/01/01 19:59:33;;;;;;;;;;;17.70;73.80;;;;;;10248387;28;92787;-59
2024/01/01 20:04:38;;;;;;;;;;;17.70;73.60;;;;;;10246938;28;93562;-59
2024/01/01 20:09:44;;;;;;;;;;;17.70;73.60;;;;;;10241450;28;95912;-59
2024/01/01 20:14:46;;;;;;;;;;;17.70;73.30;;;;;;10246711;28;93142;-68
2024/01/01 20:19:48;;;;;;;;;;;17.70;73.10;;;;;;10245466;28;94114;-59
2024/01/01 20:24:52;;;;;;;;;;;17.60;73.00;;;;;;10249408;28;94061;-59
2024/01/01 20:29:54;;;;;;;;;;;17.60;72.90;;;;;;10248180;28;93399;-59
2024/01/01 20:34:56;;;;;;;;;;;17.50;72.60;;;;;;10254538;28;93461;-59
2024/01/01 20:39:57;;;;;;;;;;;17.50;72.60;;;;;;10240529;28;93429;-59
2024/01/01 20:44:59;;;;;;;;;;;17.50;72.90;;;;;;10228828;28;92771;-59
2024/01/01 20:50:01;;;;;;;;;;;17.40;72.70;;;;;;10243381;28;93627;-59
2024/01/01 20:55:03;;;;;;;;;;;17.40;72.60;;;;;;10239034;28;94165;-59
2024/01/01 21:00:05;;;;;;;;;;;17.40;72.60;;;;;;10239685;28;96002;-60
2024/01/01 21:05:07;;;;;;;;;;;17.40;72.60;;;;;;10234664;28;93747;-59
2024/01/01 21:10:09;;;;;;;;;;;17.30;72.60;;;;;;10241492;28;93921;-58
2024/01/01 21:15:12;;;;;;;;;;;17.30;73.00;;;;;;10238983;28;93772;-68
2024/01/01 21:20:14;;;;;;;;;;;17.30;73.00;;;;;;10245310;28;93460;-59
2024/01/01 21:25:16;;;;;;;;;;;17.30;73.20;;;;;;10237402;28;92937;-59
2024/01/01 21:30:17;;;;;;;;;;;17.20;73.10;;;;;;10243414;28;94623;-59
2024/01/01 21:35:20;;;;;;;;;;;17.20;73.10;;;;;;10245815;28;92519;-59
2024/01/01 21:40:23;;;;;;;;;;;17.20;73.00;;;;;;10256799;28;93782;-59
2024/01/01 21:45:25;;;;;;;;;;;17.20;73.00;;;;;;10239989;28;93515;-59
2024/01/01 21:50:27;;;;;;;;;;;17.20;72.90;;;;;;10239122;28;96422;-59
2024/01/01 21:55:29;;;;;;;;;;;17.20;72.90;;;;;;10244566;28;93648;-59
2024/01/01 22:00:30;;;;;;;;;;;17.20;73.00;;;;;;10234341;28;93811;-59
2024/01/01 22:05:32;;;;;;;;;;;17.10;73.10;;;;;;10241530;28;93255;-59
2024/01/01 22:10:34;;;;;;;;;;;17.10;73.00;;;;;;10244979;28;93494;-59
2024/01/01 22:15:36;;;;;;;;;;;17.10;73.10;;;;;;10240670;28;94014;-58
2024/01/01 22:20:39;;;;;;;;;;;17.10;73.00;;;;;;10246483;28;93919;-59
2024/01/01 22:25:41;;;;;;;;;;;17.10;73.10;;;;;;10242041;28;93263;-59
2024/01/01 22:30:43;;;;;;;;;;;17.10;73.20;;;;;;10238168;28;93956;-58
2024/01/01 22:35:45;;;;;;;;;;;17.10;73.20;;;;;;10241027;28;94959;-58
2024/01/01 22:40:46;;;;;;;;;;;17.10;73.20;;;;;;10238793;28;95845;-58
2024/01/01 22:45:48;;;;;;;;;;;17.10;73.10;;;;;;10224471;28;93417;-59
2024/01/01 22:50:50;;;;;;;;;;;17.10;73.00;;;;;;10239011;28;93410;-59
2024/01/01 22:55:51;;;;;;;;;;;17.00;73.00;;;;;;10239511;28;94398;-59
2024/01/01 23:00:55;;;;;;;;;;;17.00;73.10;;;;;;10238123;28;93696;-59
2024/01/01 23:05:56;;;;;;;;;;;17.00;73.00;;;;;;10236856;28;93961;-59
2024/01/01 23:10:58;;;;;;;;;;;17.00;72.70;;;;;;10242559;28;93910;-59
2024/01/01 23:16:00;;;;;;;;;;;17.00;72.10;;;;;;10244243;28;93328;-59
2024/01/01 23:21:02;;;;;;;;;;;16.90;71.50;;;;;;10242298;28;93469;-59
2024/01/01 23:26:04;;;;;;;;;;;17.00;71.00;;;;;;10249645;28;93324;-59
2024/01/01 23:31:06;;;;;;;;;;;16.90;70.50;;;;;;10255112;28;95871;-59
2024/01/01 23:36:08;;;;;;;;;;;16.90;70.00;;;;;;10255460;28;94105;-60
2024/01/01 23:41:10;;;;;;;;;;;16.90;69.60;;;;;;10250384;28;94280;-57
2024/01/01 23:46:12;;;;;;;;;;;16.90;69.20;;;;;;10250830;28;94211;-57
2024/01/01 23:51:13;;;;;;;;;;;16.90;69.00;;;;;;10249943;28;93337;-58
2024/01/01 23:56:16;;;;;;;;;;;16.90;69.10;;;;;;10253815;28;93598;-57
